Latest Weather Observations for Gove Airport

IDD60801

Issued at 10:01 pm CST Wednesday 2 September 2015 (issued every 30 minutes, with the page automatically refreshed every 10 minutes)

About weather observations | Map of weather stations | Latest weather observations for NT | Other Formats
Station Details ID: 014508 Name: GOVE AIRPORT Lat: -12.27 Lon: 136.82 Height: 51.6 m
Data from the previous 72 hours. | See also: Recent months at Gove Airport
Date/Time
CST
Temp
°C
App
Temp
°C
Dew
Point
Rel
Hum
%
Delta-T
°C
Wind Press
QNH
hPa
Press
MSL
hPa
Rain
since 9 am
mm
Dir
 
Spd
km/h
Gust
km/h
Spd
kts
Gust
kts
02/09:30pm 24.2 27.5 21.8 86 1.6 ENE 7 9 4 5 1015.8 - 0.2
02/09:00pm 24.4 27.8 22.0 86 1.6 ENE 7 9 4 5 1015.6 1015.4 0.2
02/08:30pm 24.8 28.2 22.0 84 1.9 E 7 9 4 5 1015.3 - 0.2
02/08:00pm 25.0 28.4 22.0 83 2.0 ENE 7 11 4 6 1014.9 - 0.2
02/07:30pm 25.1 27.6 21.8 82 2.2 NE 11 15 6 8 1014.5 - 0.2
02/07:00pm 25.3 27.9 21.9 81 2.3 NE 11 13 6 7 1014.3 - 0.2
02/06:30pm 25.6 27.4 21.9 80 2.5 NE 15 22 8 12 1014.0 - 0.2
02/06:00pm 26.0 27.4 21.8 77 2.8 ENE 17 24 9 13 1013.8 1013.5 0.2
02/05:30pm 26.9 27.9 21.8 73 3.4 ENE 19 24 10 13 1013.8 - 0.2
02/05:00pm 27.0 27.5 21.1 70 3.9 ENE 20 28 11 15 1013.6 - 0.2
02/04:30pm 27.7 28.3 21.4 68 4.2 E 20 26 11 14 1013.4 - 0.2
02/04:00pm 28.4 28.7 20.4 62 5.3 ENE 19 24 10 13 1013.5 - 0.2
02/03:30pm 28.5 28.8 20.5 62 5.3 ENE 19 28 10 15 1013.5 - 0.2
02/03:00pm 28.8 29.7 20.8 62 5.3 ENE 17 22 9 12 1013.6 1013.3 0.2
02/02:30pm 29.2 30.3 20.4 59 5.8 ENE 15 24 8 13 1013.8 - 0.2
02/02:00pm 29.4 30.4 21.0 60 5.6 NE 17 26 9 14 1014.1 - 0.2
02/01:30pm 29.3 29.9 20.2 58 6.0 NE 17 28 9 15 1014.5 - 0.2
02/01:00pm 28.8 28.9 20.0 59 5.8 NE 19 24 10 13 1015.0 - 0.2
02/12:30pm 29.1 29.7 20.3 59 5.8 E 17 22 9 12 1015.5 - 0.2
02/12:00pm 28.9 29.6 20.4 60 5.6 E 17 20 9 11 1015.9 1015.7 0.2
02/11:30am 29.1 29.8 20.5 59 5.7 ENE 17 24 9 13 1016.4 - 0.2
02/11:00am 28.2 29.2 21.0 65 4.8 ENE 17 24 9 13 1016.9 - 0.2
02/10:30am 27.5 28.2 21.2 68 4.2 ENE 19 26 10 14 1017.2 - 0.2
02/10:00am 27.4 27.8 20.7 67 4.4 ENE 19 28 10 15 1017.4 - 0.0
02/09:30am 27.3 28.6 20.8 67 4.3 ENE 15 20 8 11 1017.3 - 0.0
02/09:00am 26.5 28.1 21.5 74 3.3 ENE 15 22 8 12 1017.1 1016.9 0.0
02/08:30am 25.5 28.1 21.9 80 2.4 ENE 11 17 6 9 1017.0 - 0.0
02/08:00am 23.7 27.6 21.9 90 1.2 SE 4 9 2 5 1016.6 - 0.0
02/07:40am 21.0 25.1 20.7 98 0.2 CALM 0 0 0 0 1016.4 - 0.0
02/07:36am 20.7 24.5 20.2 97 0.3 CALM 0 0 0 0 1016.3 - 0.0
02/07:30am 20.1 23.6 19.6 97 0.3 CALM 0 0 0 0 1016.3 - 0.0
02/07:00am 17.9 20.5 17.4 97 0.3 CALM 0 0 0 0 1015.9 - 0.0
02/06:30am 17.4 19.8 16.9 97 0.3 CALM 0 0 0 0 1015.4 - 0.0
02/06:00am 17.7 20.1 17.0 96 0.4 CALM 0 0 0 0 1015.1 1014.9 0.0
02/05:38am 18.0 20.5 17.3 96 0.4 CALM 0 0 0 0 1014.5 - 0.0
02/05:30am 18.1 20.7 17.6 97 0.3 CALM 0 0 0 0 1014.3 - 0.0
02/05:19am 18.4 21.1 17.7 96 0.4 CALM 0 0 0 0 1014.3 - 0.0
02/05:07am 18.5 21.2 17.8 96 0.4 CALM 0 0 0 0 1014.1 - 0.0
02/05:00am 18.5 21.2 17.8 96 0.4 CALM 0 0 0 0 1014.0 - 0.0
02/04:30am 18.4 21.3 18.1 98 0.2 CALM 0 0 0 0 1014.0 - 0.0
02/04:24am 18.3 21.1 18.0 98 0.2 CALM 0 0 0 0 1014.0 - 0.0
02/04:00am 18.8 21.8 18.5 98 0.2 CALM 0 0 0 0 1013.9 - 0.0
02/03:30am 18.8 21.7 18.3 97 0.3 CALM 0 0 0 0 1014.0 - 0.0
02/03:24am 19.1 22.1 18.5 96 0.4 CALM 0 0 0 0 1014.0 - 0.0
02/03:10am 19.1 22.0 18.3 95 0.5 CALM 0 0 0 0 1014.1 - 0.0
02/03:00am 19.1 22.2 18.6 97 0.3 CALM 0 0 0 0 1014.1 1013.8 0.0
02/02:33am 19.2 22.2 18.4 95 0.5 CALM 0 0 0 0 1014.1 - 0.0
02/02:30am 19.2 22.2 18.4 95 0.5 CALM 0 0 0 0 1014.1 - 0.0
02/02:28am 19.1 21.9 18.0 93 0.7 CALM 0 0 0 0 1014.1 - 0.0
02/02:21am 19.1 22.0 18.3 95 0.5 CALM 0 0 0 0 1014.1 - 0.0
02/02:02am 19.4 22.0 18.4 94 0.6 S 2 6 1 3 1014.1 - 0.0
02/02:00am 19.4 22.1 18.6 95 0.5 S 2 7 1 4 1014.1 - 0.0
02/01:30am 19.2 22.1 18.2 94 0.6 CALM 0 6 0 3 1014.2 - 0.0
02/01:00am 18.8 21.4 17.5 92 0.8 CALM 0 2 0 1 1014.2 - 0.0
02/12:57am 18.8 21.1 17.7 93 0.7 SW 2 6 1 3 1014.2 - 0.0
02/12:35am 18.7 21.3 17.6 93 0.7 CALM 0 0 0 0 1014.2 - 0.0
02/12:32am 18.8 21.5 17.7 93 0.7 CALM 0 0 0 0 1014.2 - 0.0
02/12:30am 18.7 21.4 17.7 94 0.6 CALM 0 0 0 0 1014.2 - 0.0
02/12:00am 19.2 22.1 18.1 93 0.7 CALM 0 0 0 0 1014.4 1014.1 0.0
 
Date/Time
CST
Temp
°C
App
Temp
°C
Dew
Point
Rel
Hum
%
Delta-T
°C
Wind Press
QNH
hPa
Press
MSL
hPa
Rain
since 9 am
mm
Dir
 
Spd
km/h
Gust
km/h
Spd
kts
Gust
kts
01/11:30pm 19.6 22.6 18.5 93 0.7 CALM 0 0 0 0 1014.4 - 0.0
01/11:24pm 19.7 22.8 18.6 93 0.7 CALM 0 0 0 0 1014.4 - 0.0
01/11:00pm 20.4 23.7 19.0 92 0.9 CALM 0 0 0 0 1014.3 - 0.0
01/10:30pm 21.4 23.6 19.5 89 1.2 NNE 7 9 4 5 1014.3 - 0.0
01/10:00pm 23.0 26.1 21.5 91 1.0 NNE 7 9 4 5 1014.4 - 0.0
01/09:30pm 22.8 25.9 21.1 90 1.1 NE 6 7 3 4 1014.3 - 0.0
01/09:00pm 22.4 26.4 20.6 89 1.2 CALM 0 4 0 2 1014.1 1013.8 0.0
01/08:30pm 23.6 27.0 21.6 88 1.3 NE 6 7 3 4 1014.0 - 0.0
01/08:00pm 23.8 27.0 21.7 88 1.4 NE 7 9 4 5 1013.8 - 0.0
01/07:30pm 24.1 27.2 21.5 85 1.7 NE 7 9 4 5 1013.4 - 0.0
01/07:00pm 24.6 27.3 21.4 82 2.1 ENE 9 11 5 6 1013.1 - 0.0
01/06:30pm 25.0 26.9 21.4 80 2.4 ENE 13 17 7 9 1012.9 - 0.0
01/06:00pm 25.9 27.4 21.2 75 3.1 E 15 17 8 9 1012.6 1012.3 0.0
01/05:30pm 26.9 28.1 20.7 69 4.1 ENE 15 19 8 10 1012.3 - 0.0
01/05:00pm 27.8 28.3 19.3 60 5.5 ENE 15 20 8 11 1012.2 - 0.0
01/04:30pm 28.5 27.9 17.6 51 6.9 ENE 17 22 9 12 1012.1 - 0.0
01/04:00pm 29.3 28.2 16.3 45 8.1 E 17 24 9 13 1012.2 - 0.0
01/03:30pm 29.6 28.7 16.9 46 8.0 ENE 17 26 9 14 1012.2 - 0.0
01/03:00pm 29.4 27.7 15.8 43 8.4 E 19 24 10 13 1012.5 1012.2 0.0
01/02:30pm 29.9 28.1 15.5 41 8.9 ENE 19 26 10 14 1012.7 - 0.0
01/02:00pm 30.3 28.0 13.0 34 10.3 ENE 17 28 9 15 1013.0 - 0.0
01/01:30pm 30.6 28.6 15.0 38 9.6 ENE 19 26 10 14 1013.3 - 0.0
01/01:00pm 30.1 26.5 11.7 32 10.7 E 22 33 12 18 1013.6 - 0.0
01/12:30pm 30.3 27.9 14.3 37 9.7 ENE 20 28 11 15 1013.9 - 0.0
01/12:00pm 30.4 28.2 14.5 38 9.7 E 19 26 10 14 1014.4 1014.1 0.0
01/11:30am 30.4 27.4 12.4 33 10.6 E 20 26 11 14 1014.7 - 0.0
01/11:00am 29.3 27.1 14.9 41 8.8 ESE 20 28 11 15 1015.1 - 0.0
01/10:30am 28.6 28.4 18.6 54 6.4 E 17 22 9 12 1015.4 - 0.0
01/10:00am 27.5 28.2 20.5 65 4.6 NE 17 24 9 13 1015.6 - 0.0
01/09:30am 28.1 28.0 18.8 57 6.0 ENE 17 20 9 11 1015.5 - 0.0
01/09:00am 27.6 28.4 19.9 63 5.0 ENE 15 24 8 13 1015.2 1015.0 0.0
01/08:30am 27.3 29.1 19.6 62 5.0 ENE 9 13 5 7 1014.9 - 0.0
01/08:00am 24.7 28.4 22.5 87 1.5 E 7 9 4 5 1014.8 - 0.0
01/07:42am 23.2 27.3 21.5 90 1.1 ESE 2 7 1 4 1014.7 - 0.0
01/07:30am 21.6 25.8 21.0 96 0.4 CALM 0 0 0 0 1014.5 - 0.0
01/07:17am 19.6 22.9 19.0 96 0.4 CALM 0 0 0 0 1014.4 - 0.0
01/07:00am 18.2 20.8 17.5 96 0.4 CALM 0 0 0 0 1014.4 - 0.0
01/06:30am 17.5 19.8 16.8 96 0.4 CALM 0 0 0 0 1014.1 - 0.0
01/06:00am 17.8 20.2 17.0 95 0.5 CALM 0 0 0 0 1013.7 1013.4 0.0
01/05:53am 17.6 19.8 16.6 94 0.6 CALM 0 0 0 0 1013.7 - 0.0
01/05:30am 18.1 20.6 17.3 95 0.5 CALM 0 0 0 0 1013.5 - 0.0
01/05:00am 18.7 21.7 18.4 98 0.2 CALM 0 0 0 0 1013.5 - 0.0
01/04:30am 18.6 21.3 17.8 95 0.5 CALM 0 0 0 0 1013.4 - 0.0
01/04:00am 18.8 21.6 18.0 95 0.5 CALM 0 0 0 0 1013.4 - 0.0
01/03:51am 19.1 22.0 18.3 95 0.5 CALM 0 0 0 0 1013.4 - 0.0
01/03:46am 18.9 21.8 18.1 95 0.5 CALM 0 0 0 0 1013.4 - 0.0
01/03:30am 18.6 20.9 17.8 95 0.5 SE 2 6 1 3 1013.4 - 0.0
01/03:08am 18.6 20.1 17.5 93 0.7 SSE 6 7 3 4 1013.4 - 0.0
01/03:00am 18.5 20.0 17.5 94 0.6 SSE 6 7 3 4 1013.5 1013.2 0.0
01/02:42am 19.1 20.8 18.5 96 0.4 SSE 7 9 4 5 1013.6 - 0.0
01/02:30am 19.3 21.2 19.0 98 0.2 S 7 9 4 5 1013.6 - 0.0
01/02:24am 19.6 21.5 19.0 96 0.4 S 7 9 4 5 1013.6 - 0.0
01/02:00am 20.0 21.8 19.5 97 0.3 SSE 9 11 5 6 1013.6 - 0.0
01/01:59am 19.9 21.6 19.4 97 0.3 S 9 11 5 6 1013.6 - 0.0
01/01:30am 18.6 19.9 17.6 94 0.6 SSE 7 9 4 5 1013.9 - 0.0
01/01:00am 18.8 21.5 17.8 94 0.6 CALM 0 0 0 0 1014.2 - 0.0
01/12:30am 18.9 20.5 17.8 93 0.7 SSW 6 9 3 5 1014.4 - 0.0
01/12:01am 19.7 21.5 18.4 92 0.8 SE 6 7 3 4 1014.6 - 0.0
01/12:00am 19.8 21.7 18.5 92 0.8 SE 6 7 3 4 1014.6 1014.4 0.0
 
Date/Time
CST
Temp
°C
App
Temp
°C
Dew
Point
Rel
Hum
%
Delta-T
°C
Wind Press
QNH
hPa
Press
MSL
hPa
Rain
since 9 am
mm
Dir
 
Spd
km/h
Gust
km/h
Spd
kts
Gust
kts
31/11:30pm 20.8 22.7 19.7 93 0.7 E 9 11 5 6 1014.7 - 0.0
31/11:00pm 20.6 22.8 19.5 93 0.7 ESE 7 9 4 5 1014.7 - 0.0
31/10:30pm 20.7 23.2 19.8 95 0.6 ESE 6 7 3 4 1014.7 - 0.0
31/10:00pm 20.8 24.0 19.7 93 0.7 SE 2 7 1 4 1014.8 - 0.0
31/09:30pm 21.3 25.0 19.9 92 0.9 CALM 0 0 0 0 1014.8 - 0.0
31/09:00pm 21.5 25.2 19.9 91 1.0 CALM 0 0 0 0 1014.8 1014.6 0.0
31/08:30pm 21.9 25.7 20.2 90 1.1 CALM 0 0 0 0 1014.6 - 0.0
31/08:00pm 22.3 26.2 20.4 89 1.2 CALM 0 4 0 2 1014.3 - 0.0
31/07:30pm 23.3 27.1 20.9 86 1.6 SE 2 6 1 3 1013.9 - 0.0
31/07:00pm 23.6 26.3 20.7 84 1.9 SSE 7 9 4 5 1013.6 - 0.0
31/06:30pm 24.8 26.7 20.5 77 2.8 SSE 11 15 6 8 1013.5 - 0.0
31/06:00pm 25.8 27.2 20.3 71 3.6 SSE 13 17 7 9 1013.3 1013.0 0.0
31/05:30pm 27.0 27.2 19.3 62 5.0 SSE 17 24 9 13 1013.2 - 0.0
31/05:00pm 28.2 28.4 19.4 59 5.7 SSE 17 22 9 12 1013.0 - 0.0
31/04:30pm 28.2 27.8 18.9 57 6.0 SSE 19 24 10 13 1012.9 - 0.0
31/04:00pm 28.7 28.3 18.8 55 6.4 SSE 19 28 10 15 1012.8 - 0.0
31/03:30pm 29.9 29.5 18.8 51 7.2 SE 19 28 10 15 1012.9 - 0.0
31/03:00pm 28.8 27.9 18.2 52 6.8 SSE 20 39 11 21 1013.1 1012.8 0.0
31/02:30pm 28.9 27.3 17.5 50 7.2 SE 22 33 12 18 1013.4 - 0.0
31/02:00pm 29.7 28.0 18.2 50 7.4 SE 24 37 13 20 1013.8 - 0.0
31/01:46pm 29.4 26.6 17.4 48 7.6 SE 28 50 15 27 1014.1 - 0.0
31/01:30pm 29.2 26.3 17.0 47 7.7 SE 28 41 15 22 1014.2 - 0.0
31/01:00pm 30.7 27.4 16.9 43 8.7 ESE 30 39 16 21 1014.5 - 0.0
31/12:30pm 29.2 26.7 17.0 47 7.7 SE 26 37 14 20 1015.0 - 0.0
31/12:00pm 29.8 28.2 18.3 50 7.4 SE 24 33 13 18 1015.4 1015.2 0.0
31/11:30am 29.5 27.6 17.7 49 7.5 E 24 28 13 15 1015.6 - 0.0
31/11:00am 29.4 28.8 18.9 53 6.8 E 20 28 11 15 1016.1 - 0.0
31/10:30am 29.7 28.8 18.1 49 7.4 E 20 30 11 16 1016.3 - 0.0
31/10:00am 29.0 29.1 21.2 62 5.2 ENE 22 30 12 16 1016.2 - 0.0
31/09:30am 29.5 28.5 14.7 40 9.0 SSE 13 19 7 10 1015.7 - 0.0
31/09:00am 27.8 29.3 18.8 58 5.8 SSE 9 13 5 7 1015.7 1015.5 0.0
31/08:30am 25.6 28.4 20.9 75 3.1 S 7 11 4 6 1015.4 - 0.0
31/08:00am 23.9 27.2 21.9 88 1.3 S 7 9 4 5 1015.3 - 0.0
31/07:30am 21.7 24.5 20.5 93 0.8 S 6 9 3 5 1015.2 - 0.0
31/07:17am 19.6 22.0 18.8 95 0.5 S 4 6 2 3 1015.1 - 0.0
31/07:00am 18.5 20.4 17.7 95 0.5 S 4 7 2 4 1014.9 - 0.0
31/06:30am 17.9 20.0 17.1 95 0.5 S 2 6 1 3 1014.5 - 0.0
31/06:00am 18.1 20.6 17.3 95 0.5 CALM 0 0 0 0 1014.2 1013.9 0.0
31/05:30am 18.4 21.0 17.4 94 0.6 CALM 0 0 0 0 1014.0 - 0.0
31/05:00am 18.9 21.8 18.1 95 0.5 CALM 0 0 0 0 1014.0 - 0.0
31/04:30am 19.1 22.0 18.1 94 0.6 CALM 0 0 0 0 1014.0 - 0.0
31/04:00am 19.2 22.2 18.4 95 0.5 CALM 0 0 0 0 1014.0 - 0.0
31/03:30am 19.5 22.7 18.9 96 0.4 CALM 0 0 0 0 1014.1 - 0.0
31/03:09am 20.1 23.4 19.1 94 0.6 CALM 0 0 0 0 1014.2 - 0.0
31/03:00am 19.9 23.1 18.9 94 0.6 CALM 0 0 0 0 1014.3 1014.0 0.0
31/02:47am 19.8 22.9 18.7 93 0.7 CALM 0 0 0 0 1014.4 - 0.0
31/02:30am 19.4 21.7 18.6 95 0.5 S 4 7 2 4 1014.4 - 0.0
31/02:00am 19.9 22.0 18.9 94 0.6 SSW 6 9 3 5 1014.6 - 0.0
31/01:30am 20.8 23.3 20.2 96 0.4 S 7 9 4 5 1014.8 - 0.0
31/01:00am 19.9 22.0 18.9 94 0.6 S 6 7 3 4 1015.3 - 0.0
31/12:30am 20.0 22.1 18.9 93 0.7 SSE 6 7 3 4 1015.6 - 0.0
31/12:00am 20.2 22.0 18.8 92 0.9 S 7 11 4 6 1015.8 1015.6 0.0
 
Date/Time
CST
Temp
°C
App
Temp
°C
Dew
Point
Rel
Hum
%
Delta-T
°C
Wind Press
QNH
hPa
Press
MSL
hPa
Rain
since 9 am
mm
Dir
 
Spd
km/h
Gust
km/h
Spd
kts
Gust
kts
30/11:56pm 20.4 22.0 19.1 92 0.8 S 9 11 5 6 1015.8 - 0.0
30/11:53pm 20.8 23.0 19.5 92 0.8 S 7 11 4 6 1015.7 - 0.0
30/11:30pm 20.2 23.4 18.9 92 0.8 CALM 0 0 0 0 1015.9 - 0.0
30/11:00pm 20.5 22.7 19.2 92 0.8 S 6 7 3 4 1015.8 - 0.0
30/10:30pm 20.7 23.0 19.4 92 0.8 S 6 7 3 4 1015.8 - 0.0
30/10:29pm 20.7 23.0 19.4 92 0.8 S 6 7 3 4 1015.8 - 0.0

Other Formats:

Comma delimited format used in spreadsheet applications
http://www.bom.gov.au/fwo/IDD60801/IDD60801.94150.axf

JavaScript Object Notation format (JSON) in row-major order
http://www.bom.gov.au/fwo/IDD60801/IDD60801.94150.json